Flat Creek (Missouri), Jenkins (07052820)

StateMissouriCurrentGood (224 cfs)
RiverFlat CreekFlood - The river is flooding. Obstacles can be treacherous or deadly. The river should be avoided at this stage for casual trips and definitely for the inexperienced. Trips should be attempted only with protective gear and equipment.Flood(none)
Updated2019-10-14 2:00 (1 hour ago)High - The river is high and potentially dangerous, especially for the young and / or inexperienced. Normal stream obstacles are sometimes difficult to navigate. Extended distances can be attempted, but canoe travel may not be advisable.High600
Discharge224 cfs (median: 70 cfs)Good - Conditions are ideal for a canoe or kayak. Boats typically will drag on fewer than one-quarter of riffles, if at all, and portages are unnecessary or rare. Normal float lengths can be attempted without a problem.Good150
Height4.03 feetLow - River is low but can still be floated. Some riffles are okay but most come with significant dragging and might need a portage. Float lengths should be reduced to accommodate low flow, dragging, and portages.Low(none)
TrendSteady (falling over 24 hours)Poor - River is too low to float comfortably. Most or all riffles will drag or must be portaged and some obstacles (such as slick shelf rock) cause undue problems. Avoid the river at this stage for casual paddling trips.Poor(none)
USGSExternal icon USGS Site for Jenkins (07052820)LocationExternal icon Google Maps

Trending Data

Plot Image
ObservationHeightDischargeMaximum
Discharge
Minimum
Discharge
Mean
Discharge
P05P10P20P25P50
(Median)
P75P80P90P95
2019-10-14 02:00 4.03 224 2120 (2015) 38 (2018) 319 40 53 59 70 113 504 1850
2019-10-14 01:00 4.03 224 2120 (2015) 38 (2018) 319 40 53 59 70 113 504 1850
2019-10-14 00:00 4.04 227 2120 (2015) 38 (2018) 319 40 53 59 70 113 504 1850
2019-10-13 23:00 4.05 230 2730 (2015) 37 (2013) 377 37 41 46 71 115 542 2350
2019-10-13 22:00 4.06 232 2730 (2015) 37 (2013) 377 37 41 46 71 115 542 2350
2019-10-13 21:00 4.07 235 2730 (2015) 37 (2013) 377 37 41 46 71 115 542 2350
2019-10-13 20:00 4.08 238 2730 (2015) 37 (2013) 377 37 41 46 71 115 542 2350
2019-10-13 19:00 4.09 241 2730 (2015) 37 (2013) 377 37 41 46 71 115 542 2350
2019-10-13 18:00 4.10 244 2730 (2015) 37 (2013) 377 37 41 46 71 115 542 2350
2019-10-13 17:00 4.11 247 2730 (2015) 37 (2013) 377 37 41 46 71 115 542 2350
2019-10-13 16:00 4.12 250 2730 (2015) 37 (2013) 377 37 41 46 71 115 542 2350
2019-10-13 15:00 4.15 259 2730 (2015) 37 (2013) 377 37 41 46 71 115 542 2350
2019-10-13 14:00 4.15 259 2730 (2015) 37 (2013) 377 37 41 46 71 115 542 2350
2019-10-13 13:00 4.16 262 2730 (2015) 37 (2013) 377 37 41 46 71 115 542 2350
2019-10-13 12:00 4.19 271 2730 (2015) 37 (2013) 377 37 41 46 71 115 542 2350
2019-10-13 11:00 4.20 274 2730 (2015) 37 (2013) 377 37 41 46 71 115 542 2350
2019-10-13 10:00 4.21 277 2730 (2015) 37 (2013) 377 37 41 46 71 115 542 2350
2019-10-13 09:00 4.22 280 2730 (2015) 37 (2013) 377 37 41 46 71 115 542 2350
2019-10-13 08:00 4.24 287 2730 (2015) 37 (2013) 377 37 41 46 71 115 542 2350
2019-10-13 07:00 4.25 290 2730 (2015) 37 (2013) 377 37 41 46 71 115 542 2350
2019-10-13 06:00 4.27 296 2730 (2015) 37 (2013) 377 37 41 46 71 115 542 2350
2019-10-13 05:00 4.29 303 2730 (2015) 37 (2013) 377 37 41 46 71 115 542 2350
2019-10-13 04:00 4.31 310 2730 (2015) 37 (2013) 377 37 41 46 71 115 542 2350
2019-10-13 03:00 4.32 313 2730 (2015) 37 (2013) 377 37 41 46 71 115 542 2350
2019-10-13 02:00 4.34 320 2730 (2015) 37 (2013) 377 37 41 46 71 115 542 2350
2019-10-13 01:00 4.36 327 2730 (2015) 37 (2013) 377 37 41 46 71 115 542 2350
2019-10-13 00:00 4.39 337 2730 (2015) 37 (2013) 377 37 41 46 71 115 542 2350
2019-10-12 23:00 4.41 344 1070 (2010) 26 (2013) 186 28 37 38 60 119 302 941
2019-10-12 22:00 4.44 355 1070 (2010) 26 (2013) 186 28 37 38 60 119 302 941
2019-10-12 21:00 4.45 359 1070 (2010) 26 (2013) 186 28 37 38 60 119 302 941
2019-10-12 20:00 4.48 370 1070 (2010) 26 (2013) 186 28 37 38 60 119 302 941
2019-10-12 19:00 4.51 381 1070 (2010) 26 (2013) 186 28 37 38 60 119 302 941
2019-10-12 18:00 4.53 389 1070 (2010) 26 (2013) 186 28 37 38 60 119 302 941
2019-10-12 17:00 4.56 400 1070 (2010) 26 (2013) 186 28 37 38 60 119 302 941
2019-10-12 16:00 4.59 412 1070 (2010) 26 (2013) 186 28 37 38 60 119 302 941
2019-10-12 15:00 4.64 432 1070 (2010) 26 (2013) 186 28 37 38 60 119 302 941
2019-10-12 14:00 4.67 445 1070 (2010) 26 (2013) 186 28 37 38 60 119 302 941
2019-10-12 13:00 4.72 466 1070 (2010) 26 (2013) 186 28 37 38 60 119 302 941
2019-10-12 12:00 4.75 478 1070 (2010) 26 (2013) 186 28 37 38 60 119 302 941
2019-10-12 11:00 4.80 500 1070 (2010) 26 (2013) 186 28 37 38 60 119 302 941
2019-10-12 10:00 4.86 524 1070 (2010) 26 (2013) 186 28 37 38 60 119 302 941
2019-10-12 09:00 4.91 544 1070 (2010) 26 (2013) 186 28 37 38 60 119 302 941
2019-10-12 08:00 4.99 576 1070 (2010) 26 (2013) 186 28 37 38 60 119 302 941
2019-10-12 07:00 5.05 602 1070 (2010) 26 (2013) 186 28 37 38 60 119 302 941
2019-10-12 06:00 5.14 640 1070 (2010) 26 (2013) 186 28 37 38 60 119 302 941
2019-10-12 05:00 5.21 671 1070 (2010) 26 (2013) 186 28 37 38 60 119 302 941
2019-10-12 04:00 5.31 717 1070 (2010) 26 (2013) 186 28 37 38 60 119 302 941
2019-10-12 03:00 5.39 755 1070 (2010) 26 (2013) 186 28 37 38 60 119 302 941
2019-10-12 02:00 5.49 803 1070 (2010) 26 (2013) 186 28 37 38 60 119 302 941
2019-10-12 01:00 5.59 854 1070 (2010) 26 (2013) 186 28 37 38 60 119 302 941
2019-10-12 00:00 5.72 921 1070 (2010) 26 (2013) 186 28 37 38 60 119 302 941
2019-10-11 23:00 5.86 997 1670 (2010) 18 (2013) 270 21 35 39 60 125 504 1490
2019-10-11 22:00 6.05 1110 1670 (2010) 18 (2013) 270 21 35 39 60 125 504 1490
2019-10-11 21:00 6.25 1230 1670 (2010) 18 (2013) 270 21 35 39 60 125 504 1490
2019-10-11 20:00 6.52 1400 1670 (2010) 18 (2013) 270 21 35 39 60 125 504 1490
2019-10-11 19:00 6.79 1580 1670 (2010) 18 (2013) 270 21 35 39 60 125 504 1490
2019-10-11 18:00 7.08 1790 1670 (2010) 18 (2013) 270 21 35 39 60 125 504 1490
2019-10-11 17:00 7.32 1980 1670 (2010) 18 (2013) 270 21 35 39 60 125 504 1490
2019-10-11 16:00 7.47 2100 1670 (2010) 18 (2013) 270 21 35 39 60 125 504 1490
2019-10-11 15:00 7.38 2030 1670 (2010) 18 (2013) 270 21 35 39 60 125 504 1490
2019-10-11 14:00 6.86 1630 1670 (2010) 18 (2013) 270 21 35 39 60 125 504 1490
2019-10-11 13:00 5.80 964 1670 (2010) 18 (2013) 270 21 35 39 60 125 504 1490
2019-10-11 12:00 5.62 869 1670 (2010) 18 (2013) 270 21 35 39 60 125 504 1490
2019-10-11 11:00 5.78 953 1670 (2010) 18 (2013) 270 21 35 39 60 125 504 1490
2019-10-11 10:00 5.99 1070 1670 (2010) 18 (2013) 270 21 35 39 60 125 504 1490
2019-10-11 09:00 6.24 1220 1670 (2010) 18 (2013) 270 21 35 39 60 125 504 1490
2019-10-11 08:00 6.57 1430 1670 (2010) 18 (2013) 270 21 35 39 60 125 504 1490
2019-10-11 07:00 6.96 1700 1670 (2010) 18 (2013) 270 21 35 39 60 125 504 1490
2019-10-11 06:00 7.46 2090 1670 (2010) 18 (2013) 270 21 35 39 60 125 504 1490
2019-10-11 05:00 8.05 2600 1670 (2010) 18 (2013) 270 21 35 39 60 125 504 1490
2019-10-11 04:00 8.30 2840 1670 (2010) 18 (2013) 270 21 35 39 60 125 504 1490
2019-10-11 03:00 7.29 1960 1670 (2010) 18 (2013) 270 21 35 39 60 125 504 1490
2019-10-11 02:00 5.46 789 1670 (2010) 18 (2013) 270 21 35 39 60 125 504 1490
2019-10-11 01:00 4.57 404 1670 (2010) 18 (2013) 270 21 35 39 60 125 504 1490
2019-10-11 00:00 3.54 112 1670 (2010) 18 (2013) 270 21 35 39 60 125 504 1490
2019-10-10 23:00 3.37 83 4130 (2010) 19 (2013) 497 22 36 37 60 131 520 3460
2019-10-10 22:00 3.36 81 4130 (2010) 19 (2013) 497 22 36 37 60 131 520 3460
2019-10-10 21:00 3.32 75 4130 (2010) 19 (2013) 497 22 36 37 60 131 520 3460
2019-10-10 20:00 3.31 74 4130 (2010) 19 (2013) 497 22 36 37 60 131 520 3460
2019-10-10 19:00 3.29 71 4130 (2010) 19 (2013) 497 22 36 37 60 131 520 3460
2019-10-10 18:00 3.29 71 4130 (2010) 19 (2013) 497 22 36 37 60 131 520 3460
2019-10-10 17:00 3.29 71 4130 (2010) 19 (2013) 497 22 36 37 60 131 520 3460
2019-10-10 16:00 3.29 71 4130 (2010) 19 (2013) 497 22 36 37 60 131 520 3460
2019-10-10 15:00 3.29 71 4130 (2010) 19 (2013) 497 22 36 37 60 131 520 3460
2019-10-10 14:00 3.29 71 4130 (2010) 19 (2013) 497 22 36 37 60 131 520 3460
2019-10-10 13:00 3.30 72 4130 (2010) 19 (2013) 497 22 36 37 60 131 520 3460
2019-10-10 12:00 3.30 72 4130 (2010) 19 (2013) 497 22 36 37 60 131 520 3460
2019-10-10 11:00 3.28 70 4130 (2010) 19 (2013) 497 22 36 37 60 131 520 3460
2019-10-10 10:00 3.28 70 4130 (2010) 19 (2013) 497 22 36 37 60 131 520 3460
2019-10-10 09:00 3.28 70 4130 (2010) 19 (2013) 497 22 36 37 60 131 520 3460
2019-10-10 08:00 3.28 70 4130 (2010) 19 (2013) 497 22 36 37 60 131 520 3460
2019-10-10 07:00 3.29 71 4130 (2010) 19 (2013) 497 22 36 37 60 131 520 3460
2019-10-10 06:00 3.30 72 4130 (2010) 19 (2013) 497 22 36 37 60 131 520 3460
2019-10-10 05:00 3.29 71 4130 (2010) 19 (2013) 497 22 36 37 60 131 520 3460
2019-10-10 04:00 3.29 71 4130 (2010) 19 (2013) 497 22 36 37 60 131 520 3460
2019-10-10 03:00 3.29 71 4130 (2010) 19 (2013) 497 22 36 37 60 131 520 3460
2019-10-10 02:00 3.31 74 4130 (2010) 19 (2013) 497 22 36 37 60 131 520 3460
2019-10-10 01:00 3.31 74 4130 (2010) 19 (2013) 497 22 36 37 60 131 520 3460
2019-10-10 00:00 3.31 74 4130 (2010) 19 (2013) 497 22 36 37 60 131 520 3460
2019-10-09 23:00 3.32 75 17700 (2010) 19 (2013) 1660 21 33 37 60 104 124 14200
2019-10-09 22:00 3.31 74 17700 (2010) 19 (2013) 1660 21 33 37 60 104 124 14200
2019-10-09 21:00 3.32 75 17700 (2010) 19 (2013) 1660 21 33 37 60 104 124 14200
2019-10-09 20:00 3.32 75 17700 (2010) 19 (2013) 1660 21 33 37 60 104 124 14200
2019-10-09 19:00 3.33 77 17700 (2010) 19 (2013) 1660 21 33 37 60 104 124 14200
2019-10-09 18:00 3.33 77 17700 (2010) 19 (2013) 1660 21 33 37 60 104 124 14200
2019-10-09 17:00 3.33 77 17700 (2010) 19 (2013) 1660 21 33 37 60 104 124 14200
2019-10-09 16:00 3.34 78 17700 (2010) 19 (2013) 1660 21 33 37 60 104 124 14200
2019-10-09 15:00 3.35 80 17700 (2010) 19 (2013) 1660 21 33 37 60 104 124 14200
2019-10-09 14:00 3.35 80 17700 (2010) 19 (2013) 1660 21 33 37 60 104 124 14200
2019-10-09 13:00 3.36 81 17700 (2010) 19 (2013) 1660 21 33 37 60 104 124 14200
2019-10-09 12:00 3.36 81 17700 (2010) 19 (2013) 1660 21 33 37 60 104 124 14200
2019-10-09 11:00 3.36 81 17700 (2010) 19 (2013) 1660 21 33 37 60 104 124 14200
2019-10-09 10:00 3.37 83 17700 (2010) 19 (2013) 1660 21 33 37 60 104 124 14200
2019-10-09 09:00 3.38 84 17700 (2010) 19 (2013) 1660 21 33 37 60 104 124 14200
2019-10-09 08:00 3.38 84 17700 (2010) 19 (2013) 1660 21 33 37 60 104 124 14200
2019-10-09 07:00 3.39 86 17700 (2010) 19 (2013) 1660 21 33 37 60 104 124 14200
2019-10-09 06:00 3.38 84 17700 (2010) 19 (2013) 1660 21 33 37 60 104 124 14200
2019-10-09 05:00 3.39 86 17700 (2010) 19 (2013) 1660 21 33 37 60 104 124 14200
2019-10-09 04:00 3.40 88 17700 (2010) 19 (2013) 1660 21 33 37 60 104 124 14200
2019-10-09 03:00 3.41 89 17700 (2010) 19 (2013) 1660 21 33 37 60 104 124 14200
2019-10-09 02:00 3.41 89 17700 (2010) 19 (2013) 1660 21 33 37 60 104 124 14200
2019-10-09 01:00 3.42 91 17700 (2010) 19 (2013) 1660 21 33 37 60 104 124 14200
2019-10-09 00:00 3.41 89 17700 (2010) 19 (2013) 1660 21 33 37 60 104 124 14200
2019-10-08 23:00 3.42 91 773 (2010) 19 (2013) 128 21 33 38 61 118 137 648
2019-10-08 22:00 3.43 92 773 (2010) 19 (2013) 128 21 33 38 61 118 137 648
2019-10-08 21:00 3.43 92 773 (2010) 19 (2013) 128 21 33 38 61 118 137 648
2019-10-08 20:00 3.44 94 773 (2010) 19 (2013) 128 21 33 38 61 118 137 648
2019-10-08 19:00 3.45 96 773 (2010) 19 (2013) 128 21 33 38 61 118 137 648
2019-10-08 18:00 3.46 98 773 (2010) 19 (2013) 128 21 33 38 61 118 137 648
2019-10-08 17:00 3.47 99 773 (2010) 19 (2013) 128 21 33 38 61 118 137 648
2019-10-08 16:00 3.48 101 773 (2010) 19 (2013) 128 21 33 38 61 118 137 648
2019-10-08 15:00 3.49 103 773 (2010) 19 (2013) 128 21 33 38 61 118 137 648
2019-10-08 14:00 3.49 103 773 (2010) 19 (2013) 128 21 33 38 61 118 137 648
2019-10-08 13:00 3.51 106 773 (2010) 19 (2013) 128 21 33 38 61 118 137 648
2019-10-08 12:00 3.51 106 773 (2010) 19 (2013) 128 21 33 38 61 118 137 648
2019-10-08 11:00 3.50 104 773 (2010) 19 (2013) 128 21 33 38 61 118 137 648
2019-10-08 10:00 3.53 110 773 (2010) 19 (2013) 128 21 33 38 61 118 137 648
2019-10-08 09:00 3.59 121 773 (2010) 19 (2013) 128 21 33 38 61 118 137 648
2019-10-08 08:00 3.60 123 773 (2010) 19 (2013) 128 21 33 38 61 118 137 648
2019-10-08 07:00 3.61 125 773 (2010) 19 (2013) 128 21 33 38 61 118 137 648
2019-10-08 06:00 3.60 123 773 (2010) 19 (2013) 128 21 33 38 61 118 137 648
2019-10-08 05:00 3.62 127 773 (2010) 19 (2013) 128 21 33 38 61 118 137 648
2019-10-08 04:00 3.63 129 773 (2010) 19 (2013) 128 21 33 38 61 118 137 648
2019-10-08 03:00 3.63 129 773 (2010) 19 (2013) 128 21 33 38 61 118 137 648
2019-10-08 02:00 3.63 129 773 (2010) 19 (2013) 128 21 33 38 61 118 137 648
2019-10-08 01:00 3.62 127 773 (2010) 19 (2013) 128 21 33 38 61 118 137 648
2019-10-08 00:00 3.60 123 773 (2010) 19 (2013) 128 21 33 38 61 118 137 648
2019-10-07 23:00 3.58 119 160 (2009) 18 (2013) 74 21 34 38 59 137 138 156
2019-10-07 22:00 3.56 115 160 (2009) 18 (2013) 74 21 34 38 59 137 138 156
2019-10-07 21:00 3.56 115 160 (2009) 18 (2013) 74 21 34 38 59 137 138 156
2019-10-07 20:00 3.54 112 160 (2009) 18 (2013) 74 21 34 38 59 137 138 156
2019-10-07 19:00 3.54 112 160 (2009) 18 (2013) 74 21 34 38 59 137 138 156
2019-10-07 18:00 3.53 110 160 (2009) 18 (2013) 74 21 34 38 59 137 138 156
2019-10-07 17:00 3.54 112 160 (2009) 18 (2013) 74 21 34 38 59 137 138 156
2019-10-07 16:00 3.51 106 160 (2009) 18 (2013) 74 21 34 38 59 137 138 156
2019-10-07 15:00 3.52 108 160 (2009) 18 (2013) 74 21 34 38 59 137 138 156
2019-10-07 14:00 3.53 110 160 (2009) 18 (2013) 74 21 34 38 59 137 138 156
2019-10-07 13:00 3.51 106 160 (2009) 18 (2013) 74 21 34 38 59 137 138 156
2019-10-07 12:00 3.50 104 160 (2009) 18 (2013) 74 21 34 38 59 137 138 156
2019-10-07 11:00 3.51 106 160 (2009) 18 (2013) 74 21 34 38 59 137 138 156
2019-10-07 10:00 3.51 106 160 (2009) 18 (2013) 74 21 34 38 59 137 138 156
2019-10-07 09:00 3.50 104 160 (2009) 18 (2013) 74 21 34 38 59 137 138 156
2019-10-07 08:00 3.50 104 160 (2009) 18 (2013) 74 21 34 38 59 137 138 156
2019-10-07 07:00 3.50 104 160 (2009) 18 (2013) 74 21 34 38 59 137 138 156
2019-10-07 06:00 3.51 106 160 (2009) 18 (2013) 74 21 34 38 59 137 138 156
2019-10-07 05:00 3.51 106 160 (2009) 18 (2013) 74 21 34 38 59 137 138 156
2019-10-07 04:00 3.51 106 160 (2009) 18 (2013) 74 21 34 38 59 137 138 156
2019-10-07 03:00 3.50 104 160 (2009) 18 (2013) 74 21 34 38 59 137 138 156
2019-10-07 02:00 3.50 104 160 (2009) 18 (2013) 74 21 34 38 59 137 138 156
2019-10-07 01:00 3.46 98 160 (2009) 18 (2013) 74 21 34 38 59 137 138 156
2019-10-07 00:00 3.40 88 160 (2009) 18 (2013) 74 21 34 38 59 137 138 156

A total of 171 rows are displayed for years 2008 through 2018.

Trips for Flat Creek (Missouri), Jenkins (07052820)

DateStartEndDistanceConditionDischargeHeightFishingDetails
Click for details2015-05-25 Jenkins Rt EE Total trip distance: 11.8 miles11.8 High 1440 7.29 None NoneNone Edmond, Brian
Eth, Joe
Van Someren, Tom
Edmond, Brian; Eth, Joe; Van Someren, Tom
The river was high with a couple of downed trees that were problematic.The river was high with a couple of downed trees that were problematic. USGS Gauge Data:
Jenkins (07052820)
Discharge: 1440
Height: 7.29
<b>USGS Gauge Data:</b></br />Jenkins (07052820)<br />Discharge: 1440<br />Height: 7.29
Source: EdmondSource: Edmond
Click for details2013-07-27 Stubblefield Flat Creek Road Total trip distance: 19.3 miles19.3 High 939 6.62 None NoneNone Arnold, Al
Edmond, Brian
Eth, Joe
Arnold, Al; Edmond, Brian; Eth, Joe
We ran into a couple of obstacles that would have been very challenging in a canoe (one was probably impossible). Other than that, the river was at a very good level. Travelled 19 miles in 7 hours, including several brief stops.We ran into a couple of obstacles that would have been very challenging in a canoe (one was probably impossible). Other than that, the river was at a very good level. Travelled 19 miles in 7 hours, including several brief stops. USGS Gauge Data:
Jenkins (07052820)
Discharge: 939
Height: 6.62
<b>USGS Gauge Data:</b></br />Jenkins (07052820)<br />Discharge: 939<br />Height: 6.62
Source: EdmondSource: Edmond
Click for details2017-05-13 Jenkins Rt EE Total trip distance: 11.8 miles11.8 Good 580 5.50 Fair BLG
LMB
BLG, LMB
Dudenhoeffer, Dean
Dudenhoeffer, Todd
Martin, Galen
Turk, Scott
Van Someren, Tom
Williams, Hannah
Williams, Sarah
Williams, Tom
Dudenhoeffer, Dean; Dudenhoeffer, Todd; Martin, Galen; Turk, Scott; Van Someren, Tom; Williams, Hannah; Williams, Sarah; Williams, Tom
With the recent heavy rains SW MO had been receiving the water level was excellent. However, as expected, the flooding that resulted from all the rain created new river snarls that presented challenges to the inexperienced kayaker/canoeist. Right off the bat a poor decision to NOT take the left channel over the right managed to dump Sarah, hubby, HB and TVS trying to assist them (RRRRRR!). I lost my fishing rod, tackle, reading glasses and jerky. Fingers won't be pointed, but I knew this was the wrong choice to take. We got on the river just before 11:00 AM and reached the take-out point around 4:30 PM.With the recent heavy rains SW MO had been receiving the water level was excellent. However, as expected, the flooding that resulted from all the rain created new river snarls that presented challenges to the inexperienced kayaker/canoeist. Right off the bat a poor decision to NOT take the left channel over the right managed to dump Sarah, hubby, HB and TVS trying to assist them (RRRRRR!). I lost my fishing rod, tackle, reading glasses and jerky. Fingers won't be pointed, but I knew this was the wrong choice to take. We got on the river just before 11:00 AM and reached the take-out point around 4:30 PM. USGS Gauge Data:
Jenkins (07052820)
Discharge: 580
Height: 5.50
<b>USGS Gauge Data:</b></br />Jenkins (07052820)<br />Discharge: 580<br />Height: 5.50
Source: Van SomerenSource: Van Someren
Click for details2019-06-22 Rt EE Flat Creek Road Total trip distance: 5.5 miles5.5 Good 449 4.68 Good RB
SMB
RB, SMB
Edmond, Brian
Edmond, Julian
Van Someren, Tom
Edmond, Brian; Edmond, Julian; Van Someren, Tom
The water level for this stretch was perfect. The water was nearly crystal clear but it flowed continuously from the time we put in. In fact, we had trouble finding a gravel bar where we could swim comfortably. Julian paddled his own kayak for this entire stretch. A couple of areas were a little sketchy for him since he was new but there were no problems.The water level for this stretch was perfect. The water was nearly crystal clear but it flowed continuously from the time we put in. In fact, we had trouble finding a gravel bar where we could swim comfortably. Julian paddled his own kayak for this entire stretch. A couple of areas were a little sketchy for him since he was new but there were no problems. USGS Gauge Data:
Jenkins (07052820)
Discharge: 449
Height: 4.68
<b>USGS Gauge Data:</b></br />Jenkins (07052820)<br />Discharge: 449<br />Height: 4.68
Source: EdmondSource: Edmond
Click for details2019-07-06 Stubblefield MO 39 Total trip distance: 7.6 miles7.6 Good 355 4.44 Good GSF
LSF
SMB
GSF, LSF, SMB
Bartlett, Joe
Bartlett, Renee
Coppinger-Travers, Kathy
Dudenhoeffer, Diana
Dudenhoeffer, Todd
Edmond, Brian
Edmond, Julian
Eth, Joe
Travers, Gina
Larsen, Chris
Larsen, Lisa
Van Someren, Andrea
Van Someren, Tom
Williams, Sarah
Bartlett, Joe; Bartlett, Renee; Coppinger-Travers, Kathy; Dudenhoeffer, Diana; Dudenhoeffer, Todd; Edmond, Brian; Edmond, Julian; Eth, Joe; Travers, Gina; Larsen, Chris; Larsen, Lisa; Van Someren, Andrea; Van Someren, Tom; Williams, Sarah
This was a technical section of Flat Creek, much more so than we expected. Several downed trees and some tricky log and brush traps were present, some of which took down some boats. The water level was very good with just a few places being too shallow to float successfully (and most of those were because of the aforementioned obstacles forcing us to choose less than optimal pathways for the water level). This was Kathy's first river trip (although she'd been in a kayak before) and Julian's third solo kayak trip. Both performed admirably despite the technical difficulties.This was a technical section of Flat Creek, much more so than we expected. Several downed trees and some tricky log and brush traps were present, some of which took down some boats. The water level was very good with just a few places being too shallow to float successfully (and most of those were because of the aforementioned obstacles forcing us to choose less than optimal pathways for the water level). This was Kathy's first river trip (although she'd been in a kayak before) and Julian's third solo kayak trip. Both performed admirably despite the technical difficulties. USGS Gauge Data:
Jenkins (07052820)
Discharge: 355
Height: 4.44
<b>USGS Gauge Data:</b></br />Jenkins (07052820)<br />Discharge: 355<br />Height: 4.44
Source: EdmondSource: Edmond
Click for details2015-07-03 Jenkins Rt EE Total trip distance: 11.8 miles11.8 Good 344 4.72 None NoneNone Bortosky, Rachel
Edmond, Brian
Edmond, Julian
Eth, Joe
Ligon, Adalia
Ligon, Day
Ligon, Elseya
Bortosky, Rachel; Edmond, Brian; Edmond, Julian; Eth, Joe; Ligon, Adalia; Ligon, Day; Ligon, Elseya
Several trees and root wads were disrupted from recent floods. Several places were pretty tricky with the stronger current going directly through trees and into obstacles.Several trees and root wads were disrupted from recent floods. Several places were pretty tricky with the stronger current going directly through trees and into obstacles. USGS Gauge Data:
Jenkins (07052820)
Discharge: 344
Height: 4.72
<b>USGS Gauge Data:</b></br />Jenkins (07052820)<br />Discharge: 344<br />Height: 4.72
Source: EdmondSource: Edmond
Click for details2011-06-04 Jenkins Rt EE Total trip distance: 11.8 miles11.8 Good 290 4.78 None NoneNone Dawes, Katie
Edmond, Brian
Eth, Joe
Morrison, Pam
Turek, Stephanie
Turk, Scott
Van Someren Tom
Dawes, Katie; Edmond, Brian; Eth, Joe; Morrison, Pam; Turek, Stephanie; Turk, Scott; Van Someren Tom
No notes for this trip<i>No notes for this trip</i> USGS Gauge Data:
Jenkins (07052820)
Discharge: 290
Height: 4.78
<b>USGS Gauge Data:</b></br />Jenkins (07052820)<br />Discharge: 290<br />Height: 4.78
Source: EdmondSource: Edmond
Click for details2010-05-29 Rt EE Dry Creek Total trip distance: 10.0 miles10.0 Good 272 4.73 None NoneNone Bowe, Michelle
Edmond, Alex
Edmond, Brian
Edmond, Joseph
Eth, Joe
Morrison, Clay
Morrison, Pam
Van Someren, Tom
Bowe, Michelle; Edmond, Alex; Edmond, Brian; Edmond, Joseph; Eth, Joe; Morrison, Clay; Morrison, Pam; Van Someren, Tom
The last couple of miles were in the still water of Table Rock Lake.The last couple of miles were in the still water of Table Rock Lake. USGS Gauge Data:
Jenkins (07052820)
Discharge: 272
Height: 4.73
<b>USGS Gauge Data:</b></br />Jenkins (07052820)<br />Discharge: 272<br />Height: 4.73
Source: EdmondSource: Edmond
Click for details2017-06-24 Rt EE Flat Creek Road Total trip distance: 5.5 miles5.5 Good 269 4.63 Fair BLG
RB
SMB
BLG, RB, SMB
Acharya, Holly
Acharya, Sreekanth
Arnold, Al
Arnold, Sharmane
Davis, Reva
Eth, Joe
Cline, Bradley
Cline, Jacob
Cline, Jamie
Van Someren, Tom
Acharya, Holly; Acharya, Sreekanth; Arnold, Al; Arnold, Sharmane; Davis, Reva; Eth, Joe; Cline, Bradley; Cline, Jacob; Cline, Jamie; Van Someren, Tom
Weather was perfect, water level was excellent. Only a couple of downed trees were blocking the river where newbies felt the need to portage around them. Got on the river at 10:45 and exited around 16:30.Weather was perfect, water level was excellent. Only a couple of downed trees were blocking the river where newbies felt the need to portage around them. Got on the river at 10:45 and exited around 16:30. USGS Gauge Data:
Jenkins (07052820)
Discharge: 269
Height: 4.63
<b>USGS Gauge Data:</b></br />Jenkins (07052820)<br />Discharge: 269<br />Height: 4.63
Source: Van SomerenSource: Van Someren
Click for details2008-08-16 Rt EE Flat Creek Road Total trip distance: 5.5 miles5.5 Good 237 5.11 None NoneNone Bowe, Michelle
Edmond, Brian
Bowe, Michelle; Edmond, Brian
No notes for this trip<i>No notes for this trip</i> USGS Gauge Data:
Jenkins (07052820)
Discharge: 237
Height: 5.11
<b>USGS Gauge Data:</b></br />Jenkins (07052820)<br />Discharge: 237<br />Height: 5.11
Source: EdmondSource: Edmond
Click for details2015-11-25 Rt EE Flat Creek Road Total trip distance: 5.5 miles5.5 Good 213 4.21 None NoneNone Eth, Joe
Turk, Scott
Van Someren, Tom
Eth, Joe; Turk, Scott; Van Someren, Tom
No notes for this trip<i>No notes for this trip</i> USGS Gauge Data:
Jenkins (07052820)
Discharge: 213
Height: 4.21
<b>USGS Gauge Data:</b></br />Jenkins (07052820)<br />Discharge: 213<br />Height: 4.21
Source: Van SomerenSource: Van Someren
Click for details2015-08-09 Rt EE Flat Creek Road Total trip distance: 5.5 miles5.5 Good 152 4.06 Good LMB
LSF
RB
SMB
LMB, LSF, RB, SMB
Bramow, Maxi
Casey, Libra
Dickens, Kristen
Edmond, Brian
Edmond, Julian
Eth, Joe
Lowery, Marc
Moler, Leta
Van Someren, Tom
Bramow, Maxi; Casey, Libra; Dickens, Kristen; Edmond, Brian; Edmond, Julian; Eth, Joe; Lowery, Marc; Moler, Leta; Van Someren, Tom
Almost everyone was able to get through all the riffles without getting out of their boats, but several places were too shallow to float without dragging at least some. A lot of debris was in the river from recent floods. This is definitely at the low end of what could be considered a comfortable floating level.Almost everyone was able to get through all the riffles without getting out of their boats, but several places were too shallow to float without dragging at least some. A lot of debris was in the river from recent floods. This is definitely at the low end of what could be considered a comfortable floating level. USGS Gauge Data:
Jenkins (07052820)
Discharge: 152
Height: 4.06
<b>USGS Gauge Data:</b></br />Jenkins (07052820)<br />Discharge: 152<br />Height: 4.06
Source: EdmondSource: Edmond
Click for details2007-07-07 Rt EE Flat Creek Road Total trip distance: 5.5 miles5.5 Good 152 None NoneNone Bowe, Michelle
Edmond, Brian
Bowe, Michelle; Edmond, Brian
No notes for this trip<i>No notes for this trip</i> USGS Gauge Data:
Jenkins (07052820)
Discharge: 152
Height:
<b>USGS Gauge Data:</b></br />Jenkins (07052820)<br />Discharge: 152<br />Height:
Source: EdmondSource: Edmond
Click for details2016-05-28 Jenkins Rt EE Total trip distance: 11.8 miles11.8 Good 135 4.80 Poor NoneNone Amburn, Andrea
Casey, Libra
Van Someren, Cynthia
Van Someren, Tom
Whisenant, Brenda
Whisenant, Don
Amburn, Andrea; Casey, Libra; Van Someren, Cynthia; Van Someren, Tom; Whisenant, Brenda; Whisenant, Don
The current was slow and the trip took the entire day (8+ hours). Had to portage around downed trees once and scraped and dragged through gravel in several places.The current was slow and the trip took the entire day (8+ hours). Had to portage around downed trees once and scraped and dragged through gravel in several places. USGS Gauge Data:
Jenkins (07052820)
Discharge: 135
Height: 4.80
<b>USGS Gauge Data:</b></br />Jenkins (07052820)<br />Discharge: 135<br />Height: 4.80
Source: Van SomerenSource: Van Someren

A total of 14 rows are displayed.

Trip Summary for Flat Creek (Missouri), Jenkins (07052820)

Miles128.9
Trips14
People48
Dates14
Years9
Months5
Rows14
Sources2

Condition Descriptions

Fishing Conditions

Fish Species

Notes

Classic Trip List

The classic River Trips application is still available for use. It is updated with the new system using a data retrofit. It is no longer maintained. The original River Trips application is no longer updated (as of 1 Dec 2016) but can be checked for errors or for the condition of the data before it was converted to the new system.